createdAt,value
2016-11-10T00:00:08.021Z,4.94
2016-11-10T00:01:07.703Z,4.95
2016-11-10T00:02:07.680Z,4.92
2016-11-10T00:03:07.454Z,4.93
2016-11-10T00:04:08.314Z,4.92
2016-11-10T00:05:07.941Z,4.94
2016-11-10T00:06:07.521Z,4.98
2016-11-10T00:07:08.169Z,4.97
2016-11-10T00:08:07.852Z,5.00
2016-11-10T00:09:07.515Z,5.00
2016-11-10T00:10:07.951Z,5.03
2016-11-10T00:11:07.844Z,5.02
2016-11-10T00:12:07.557Z,5.04
2016-11-10T00:13:07.377Z,5.04
2016-11-10T00:14:08.086Z,5.05
2016-11-10T00:15:08.997Z,5.05
2016-11-10T00:16:07.833Z,5.05
2016-11-10T00:17:07.776Z,5.06
2016-11-10T00:18:07.795Z,5.06
2016-11-10T00:19:07.499Z,5.08
2016-11-10T00:20:08.129Z,5.05
2016-11-10T00:21:07.895Z,5.05
2016-11-10T00:22:07.593Z,5.03
2016-11-10T00:23:07.236Z,5.01
2016-11-10T00:24:07.895Z,5.01
2016-11-10T00:25:07.502Z,5.03
2016-11-10T00:26:08.184Z,5.03
2016-11-10T00:27:07.949Z,5.02
2016-11-10T00:28:07.835Z,5.02
2016-11-10T00:29:07.468Z,5.01
2016-11-10T00:30:07.409Z,5.00
2016-11-10T00:31:08.024Z,5.00
2016-11-10T00:32:07.658Z,5.00
2016-11-10T00:33:07.473Z,5.03
2016-11-10T00:34:08.134Z,5.05
2016-11-10T00:35:07.734Z,5.06
2016-11-10T00:36:07.491Z,5.09
2016-11-10T00:37:08.116Z,5.12
2016-11-10T00:38:07.881Z,5.14
2016-11-10T00:39:07.582Z,5.12
2016-11-10T00:40:07.266Z,5.14
2016-11-10T00:41:07.933Z,5.16
2016-11-10T00:42:07.801Z,5.18
2016-11-10T00:43:07.618Z,5.20
2016-11-10T00:44:07.274Z,5.20
2016-11-10T00:45:07.944Z,5.22
2016-11-10T00:46:07.738Z,5.24
2016-11-10T00:47:07.310Z,5.27
2016-11-10T00:48:07.996Z,5.25
2016-11-10T00:49:07.740Z,5.28
2016-11-10T00:50:07.444Z,5.26
2016-11-10T00:51:08.224Z,5.26
2016-11-10T00:52:07.916Z,5.30
2016-11-10T00:53:07.715Z,5.30
2016-11-10T00:54:07.380Z,5.30
2016-11-10T00:55:08.066Z,5.32
2016-11-10T00:56:07.726Z,5.31
2016-11-10T00:57:07.488Z,5.33
2016-11-10T00:58:08.296Z,5.33
2016-11-10T00:59:08.056Z,5.33
2016-11-10T01:00:08.034Z,5.34
2016-11-10T01:01:07.629Z,5.32
2016-11-10T01:02:07.292Z,5.29
2016-11-10T01:03:07.940Z,5.31
2016-11-10T01:04:07.838Z,5.32
2016-11-10T01:05:07.463Z,5.31
2016-11-10T01:06:08.338Z,5.32
2016-11-10T01:07:08.201Z,5.31
2016-11-10T01:08:08.018Z,5.31
2016-11-10T01:09:07.634Z,5.34
2016-11-10T01:10:07.428Z,5.34
2016-11-10T01:11:08.060Z,5.34
2016-11-10T01:12:07.655Z,5.32
2016-11-10T01:13:08.102Z,5.33
2016-11-10T01:14:07.896Z,5.33
2016-11-10T01:15:07.493Z,5.33
2016-11-10T01:16:08.239Z,5.34
2016-11-10T01:17:08.168Z,5.33
2016-11-10T01:18:08.198Z,5.33
2016-11-10T01:19:07.768Z,5.32
2016-11-10T01:20:07.300Z,5.31
2016-11-10T01:21:08.044Z,5.33
2016-11-10T01:22:07.840Z,5.32
2016-11-10T01:23:07.558Z,5.34
2016-11-10T01:24:07.331Z,5.34
2016-11-10T01:25:07.980Z,5.35
2016-11-10T01:26:07.652Z,5.36
2016-11-10T01:27:07.224Z,5.35
2016-11-10T01:28:07.933Z,5.35
2016-11-10T01:29:07.661Z,5.35
2016-11-10T01:30:08.069Z,5.35
2016-11-10T01:31:07.342Z,5.36
2016-11-10T01:32:08.238Z,5.35
2016-11-10T01:33:07.830Z,5.34
2016-11-10T01:34:07.608Z,5.35
2016-11-10T01:35:07.214Z,5.35
2016-11-10T01:36:08.013Z,5.35
2016-11-10T01:37:07.585Z,5.34
2016-11-10T01:38:07.349Z,5.37
2016-11-10T01:39:08.295Z,5.33
2016-11-10T01:40:08.673Z,5.33
2016-11-10T01:41:07.426Z,5.35
2016-11-10T01:42:15.915Z,5.37
2016-11-10T01:43:07.791Z,5.39
2016-11-10T01:44:08.988Z,5.40
2016-11-10T01:45:07.696Z,5.40
2016-11-10T01:46:07.663Z,5.37
2016-11-10T01:47:07.386Z,5.38
2016-11-10T01:48:08.245Z,5.40
2016-11-10T01:49:08.017Z,5.41
2016-11-10T01:50:07.771Z,5.38
2016-11-10T01:51:07.536Z,5.36
2016-11-10T01:52:08.189Z,5.35
2016-11-10T01:53:08.084Z,5.33
2016-11-10T01:54:07.973Z,5.32
2016-11-10T01:55:07.648Z,5.31
2016-11-10T01:56:07.429Z,5.30
2016-11-10T01:57:08.217Z,5.32
2016-11-10T01:58:07.939Z,5.25
2016-11-10T01:59:07.499Z,5.19
2016-11-10T02:00:07.658Z,5.21
2016-11-10T02:01:07.288Z,5.18
2016-11-10T02:02:07.912Z,5.21
2016-11-10T02:03:08.095Z,5.20
2016-11-10T02:04:07.945Z,5.21
2016-11-10T02:05:08.132Z,5.19
2016-11-10T02:06:07.832Z,5.17
2016-11-10T02:07:07.698Z,5.18
2016-11-10T02:08:08.021Z,5.17
2016-11-10T02:09:07.775Z,5.16
2016-11-10T02:10:07.422Z,5.17
2016-11-10T02:11:07.792Z,5.17
2016-11-10T02:12:07.498Z,5.15
2016-11-10T02:13:07.396Z,5.16
2016-11-10T02:14:08.118Z,5.15
2016-11-10T02:15:07.739Z,5.13
2016-11-10T02:16:07.928Z,5.12
2016-11-10T02:17:07.744Z,5.15
2016-11-10T02:18:07.747Z,5.13
2016-11-10T02:19:07.467Z,5.11
2016-11-10T02:20:08.159Z,5.11
2016-11-10T02:21:07.834Z,5.09
2016-11-10T02:22:08.042Z,5.09
2016-11-10T02:23:07.911Z,5.10
2016-11-10T02:24:07.562Z,5.13
2016-11-10T02:25:07.672Z,5.16
2016-11-10T02:26:07.229Z,5.16
2016-11-10T02:27:07.598Z,5.18
2016-11-10T02:28:07.204Z,5.19
2016-11-10T02:29:07.968Z,5.18
2016-11-10T02:30:07.920Z,5.18
2016-11-10T02:31:07.684Z,5.15
2016-11-10T02:32:07.470Z,5.14
2016-11-10T02:33:08.196Z,5.13
2016-11-10T02:34:07.812Z,5.12
2016-11-10T02:35:07.724Z,5.12
2016-11-10T02:36:07.377Z,5.13
2016-11-10T02:37:07.487Z,5.13
2016-11-10T02:38:08.249Z,5.11
2016-11-10T02:39:08.199Z,5.11
2016-11-10T02:40:07.916Z,5.09
2016-11-10T02:41:07.832Z,5.11
2016-11-10T02:42:07.688Z,5.09
2016-11-10T02:43:07.403Z,5.06
2016-11-10T02:44:07.622Z,5.06
2016-11-10T02:45:08.364Z,5.09
2016-11-10T02:46:08.116Z,5.05
2016-11-10T02:47:07.742Z,5.06
2016-11-10T02:48:07.389Z,5.06
2016-11-10T02:49:08.296Z,5.05
2016-11-10T02:50:08.010Z,5.04
2016-11-10T02:51:07.834Z,5.05
2016-11-10T02:52:07.639Z,5.06
2016-11-10T02:53:07.598Z,5.06
2016-11-10T02:54:07.295Z,5.03
2016-11-10T02:55:08.235Z,5.03
2016-11-10T02:56:07.988Z,5.01
2016-11-10T02:57:07.717Z,5.01
2016-11-10T02:58:07.505Z,5.01
2016-11-10T02:59:13.310Z,4.99
2016-11-10T03:00:08.119Z,5.00
2016-11-10T03:01:07.736Z,5.00
2016-11-10T03:02:07.552Z,4.98
2016-11-10T03:03:07.991Z,4.98
2016-11-10T03:04:07.786Z,4.95
2016-11-10T03:05:07.564Z,4.95
2016-11-10T03:06:07.327Z,4.96
2016-11-10T03:07:08.210Z,4.98
2016-11-10T03:08:07.837Z,4.99
2016-11-10T03:09:07.414Z,4.99
2016-11-10T03:10:08.102Z,5.01
2016-11-10T03:11:08.052Z,5.03
2016-11-10T03:12:07.749Z,5.04
2016-11-10T03:13:07.454Z,5.04
2016-11-10T03:14:08.093Z,5.04
2016-11-10T03:15:08.752Z,5.07
2016-11-10T03:16:07.427Z,5.05
2016-11-10T03:17:07.533Z,5.07
2016-11-10T03:18:08.192Z,5.07
2016-11-10T03:19:07.922Z,5.04
2016-11-10T03:20:07.655Z,5.04
2016-11-10T03:21:07.607Z,5.05
2016-11-10T03:22:07.424Z,5.09
2016-11-10T03:23:08.085Z,5.11
2016-11-10T03:24:08.644Z,5.11
2016-11-10T03:25:07.466Z,5.12
2016-11-10T03:26:08.247Z,5.15
2016-11-10T03:27:07.997Z,5.14
2016-11-10T03:28:07.764Z,5.17
2016-11-10T03:29:07.479Z,5.17
2016-11-10T03:30:07.744Z,5.17
2016-11-10T03:31:07.952Z,5.19
2016-11-10T03:32:08.631Z,5.18
2016-11-10T03:33:07.484Z,5.18
2016-11-10T03:34:08.311Z,5.20
2016-11-10T03:35:08.117Z,5.20
2016-11-10T03:36:07.838Z,5.20
2016-11-10T03:37:07.518Z,5.18
2016-11-10T03:38:08.159Z,5.18
2016-11-10T03:39:07.828Z,5.18
2016-11-10T03:40:07.451Z,5.16
2016-11-10T03:41:08.039Z,5.18
2016-11-10T03:42:07.714Z,5.19
2016-11-10T03:43:07.360Z,5.19
2016-11-10T03:44:08.113Z,5.20
2016-11-10T03:45:08.008Z,5.21
2016-11-10T03:46:08.996Z,5.21
2016-11-10T03:47:07.705Z,5.21
2016-11-10T03:48:08.220Z,5.20
2016-11-10T03:49:08.701Z,5.21
2016-11-10T03:50:07.501Z,5.20
2016-11-10T03:51:07.631Z,5.19
2016-11-10T03:52:15.661Z,5.16
2016-11-10T03:53:07.465Z,5.17
2016-11-10T03:54:08.143Z,5.17
2016-11-10T03:55:07.872Z,5.15
2016-11-10T03:56:14.584Z,5.15
2016-11-10T03:57:07.490Z,5.13
2016-11-10T03:58:08.165Z,5.14
2016-11-10T03:59:07.900Z,5.14
2016-11-10T04:00:07.888Z,5.14
2016-11-10T04:01:07.660Z,5.15
2016-11-10T04:02:07.815Z,5.16
2016-11-10T04:03:07.502Z,5.20
2016-11-10T04:04:08.308Z,5.20
2016-11-10T04:05:07.818Z,5.18
2016-11-10T04:06:07.608Z,5.19
2016-11-10T04:07:07.390Z,5.23
2016-11-10T04:08:09.237Z,5.21
2016-11-10T04:09:07.891Z,5.22
2016-11-10T04:10:07.736Z,5.24
2016-11-10T04:11:07.362Z,5.22
2016-11-10T04:12:08.102Z,5.25
2016-11-10T04:13:07.663Z,5.28
2016-11-10T04:14:07.355Z,5.29
2016-11-10T04:15:08.162Z,5.32
2016-11-10T04:16:07.761Z,5.33
2016-11-10T04:17:07.489Z,5.33
2016-11-10T04:18:08.377Z,5.34
2016-11-10T04:19:07.669Z,5.36
2016-11-10T04:20:07.679Z,5.39
2016-11-10T04:21:07.450Z,5.39
2016-11-10T04:22:08.112Z,5.39
2016-11-10T04:23:07.933Z,5.40
2016-11-10T04:24:07.613Z,5.42
2016-11-10T04:25:07.422Z,5.43
2016-11-10T04:26:08.135Z,5.44
2016-11-10T04:27:07.723Z,5.44
2016-11-10T04:28:07.552Z,5.43
2016-11-10T04:29:08.372Z,5.45
2016-11-10T04:30:07.721Z,5.46
2016-11-10T04:31:07.601Z,5.47
2016-11-10T04:32:07.289Z,5.49
2016-11-10T04:33:08.250Z,5.50
2016-11-10T04:34:08.142Z,5.47
2016-11-10T04:35:07.888Z,5.50
2016-11-10T04:36:07.764Z,5.51
2016-11-10T04:37:07.534Z,5.52
2016-11-10T04:38:08.268Z,5.54
2016-11-10T04:39:07.954Z,5.57
2016-11-10T04:40:07.513Z,5.53
2016-11-10T04:41:08.206Z,5.54
2016-11-10T04:42:08.014Z,5.55
2016-11-10T04:43:07.848Z,5.53
2016-11-10T04:44:08.077Z,5.54
2016-11-10T04:45:07.726Z,5.56
2016-11-10T04:46:07.434Z,5.56
2016-11-10T04:47:08.199Z,5.58
2016-11-10T04:48:07.784Z,5.58
2016-11-10T04:49:08.230Z,5.61
2016-11-10T04:50:08.307Z,5.59
2016-11-10T04:51:07.863Z,5.57
2016-11-10T04:52:07.630Z,5.61
2016-11-10T04:53:07.556Z,5.59
2016-11-10T04:54:07.471Z,5.57
2016-11-10T04:55:08.299Z,5.56
2016-11-10T04:56:08.223Z,5.52
2016-11-10T04:57:28.307Z,5.48
2016-11-10T04:58:08.234Z,5.44
2016-11-10T04:59:08.208Z,5.47
2016-11-10T05:00:08.229Z,5.46
2016-11-10T05:01:08.113Z,5.36
2016-11-10T05:02:08.013Z,5.29
2016-11-10T05:03:07.829Z,5.25
2016-11-10T05:04:07.710Z,5.25
2016-11-10T05:05:07.577Z,5.20
2016-11-10T05:06:07.368Z,5.17
2016-11-10T05:07:08.944Z,5.17
2016-11-10T05:08:07.634Z,5.11
2016-11-10T05:09:07.836Z,5.07
2016-11-10T05:10:07.865Z,5.02
2016-11-10T05:11:07.496Z,5.07
2016-11-10T05:12:08.261Z,5.06
2016-11-10T05:13:08.016Z,5.02
2016-11-10T05:14:07.744Z,4.98
2016-11-10T05:15:07.468Z,4.89
2016-11-10T05:16:08.063Z,4.84
2016-11-10T05:17:07.598Z,4.87
2016-11-10T05:18:07.426Z,4.79
2016-11-10T05:19:08.107Z,4.80
2016-11-10T05:20:08.833Z,4.84
2016-11-10T05:21:07.520Z,4.76
2016-11-10T05:22:08.403Z,4.77
2016-11-10T05:23:08.285Z,4.75
2016-11-10T05:24:08.130Z,4.68
2016-11-10T05:25:09.837Z,4.68
2016-11-10T05:26:07.881Z,4.69
2016-11-10T05:27:07.860Z,4.69
2016-11-10T05:28:07.802Z,4.73
2016-11-10T05:29:07.357Z,4.67
2016-11-10T05:30:07.419Z,4.69
2016-11-10T05:31:07.696Z,4.69
2016-11-10T05:32:07.544Z,4.75
2016-11-10T05:33:07.251Z,4.75
2016-11-10T05:34:08.041Z,4.72
2016-11-10T05:35:07.940Z,4.69
2016-11-10T05:36:07.621Z,4.71
2016-11-10T05:37:07.631Z,4.76
2016-11-10T05:38:07.596Z,4.66
2016-11-10T05:39:07.404Z,4.70
2016-11-10T05:40:08.164Z,4.73
2016-11-10T05:41:07.523Z,4.70
2016-11-10T05:42:07.340Z,4.68
2016-11-10T05:43:08.203Z,4.66
2016-11-10T05:44:07.910Z,4.70
2016-11-10T05:45:07.691Z,4.69
2016-11-10T05:46:07.413Z,4.70
2016-11-10T05:47:08.192Z,4.73
2016-11-10T05:48:07.979Z,4.76
2016-11-10T05:49:16.704Z,4.72
2016-11-10T05:50:07.570Z,4.71
2016-11-10T05:51:08.163Z,4.75
2016-11-10T05:52:07.844Z,4.73
2016-11-10T05:53:07.683Z,4.78
2016-11-10T05:54:07.340Z,4.76
2016-11-10T05:55:08.009Z,4.73
2016-11-10T05:56:07.739Z,4.73
2016-11-10T05:57:07.569Z,4.71
2016-11-10T05:58:07.505Z,4.71
2016-11-10T05:59:09.348Z,4.70
2016-11-10T06:00:08.204Z,4.71
2016-11-10T06:01:07.868Z,4.71
2016-11-10T06:02:07.533Z,4.69
2016-11-10T06:03:08.274Z,4.66
2016-11-10T06:04:07.551Z,4.67
2016-11-10T06:05:08.520Z,4.66
2016-11-10T06:06:08.210Z,4.71
2016-11-10T06:07:07.964Z,4.70
2016-11-10T06:08:07.825Z,4.69
2016-11-10T06:09:07.686Z,4.65
2016-11-10T06:10:07.424Z,4.64
2016-11-10T06:11:09.055Z,4.65
2016-11-10T06:12:07.821Z,4.63
2016-11-10T06:13:07.693Z,4.66
2016-11-10T06:14:07.676Z,4.69
2016-11-10T06:15:07.352Z,4.65
2016-11-10T06:16:08.184Z,4.63
2016-11-10T06:17:07.928Z,4.66
2016-11-10T06:18:09.064Z,4.70
2016-11-10T06:19:07.792Z,4.69
2016-11-10T06:20:07.824Z,4.68
2016-11-10T06:21:07.544Z,4.67
2016-11-10T06:22:07.991Z,4.65
2016-11-10T06:23:07.681Z,4.66
2016-11-10T06:24:07.602Z,4.68
2016-11-10T06:25:07.816Z,4.69
2016-11-10T06:26:07.553Z,4.73
2016-11-10T06:27:08.343Z,4.71
2016-11-10T06:28:08.103Z,4.71
2016-11-10T06:29:07.883Z,4.69
2016-11-10T06:30:08.077Z,4.69
2016-11-10T06:31:07.880Z,4.66
2016-11-10T06:32:07.564Z,4.66
2016-11-10T06:33:08.374Z,4.71
2016-11-10T06:34:08.146Z,4.75
2016-11-10T06:35:07.899Z,4.73
2016-11-10T06:36:07.561Z,4.72
2016-11-10T06:37:07.303Z,4.71
2016-11-10T06:38:07.892Z,4.73
2016-11-10T06:39:07.691Z,4.72
2016-11-10T06:40:07.430Z,4.75
2016-11-10T06:41:08.079Z,4.77
2016-11-10T06:42:07.720Z,4.74
2016-11-10T06:43:07.318Z,4.72
2016-11-10T06:44:08.072Z,4.68
2016-11-10T06:45:07.715Z,4.64
2016-11-10T06:46:07.381Z,4.65
2016-11-10T06:47:08.236Z,4.65
2016-11-10T06:48:07.724Z,4.67
2016-11-10T06:49:08.108Z,4.65
2016-11-10T06:50:08.037Z,4.63
2016-11-10T06:51:08.403Z,4.61
2016-11-10T06:52:08.126Z,4.59
2016-11-10T06:53:07.987Z,4.63
2016-11-10T06:54:07.705Z,4.57
2016-11-10T06:55:07.399Z,4.58
2016-11-10T06:56:08.271Z,4.54
2016-11-10T06:57:08.092Z,4.50
2016-11-10T06:58:07.281Z,4.50
2016-11-10T06:59:08.106Z,4.49
2016-11-10T07:00:07.349Z,4.52
2016-11-10T07:01:08.139Z,4.50
2016-11-10T07:02:07.743Z,4.54
2016-11-10T07:03:07.569Z,4.49
2016-11-10T07:04:08.335Z,4.45
2016-11-10T07:05:08.257Z,4.45
2016-11-10T07:06:08.428Z,4.49
2016-11-10T07:07:08.137Z,4.50
2016-11-10T07:08:07.748Z,4.51
2016-11-10T07:09:07.324Z,4.54
2016-11-10T07:10:08.036Z,4.54
2016-11-10T07:11:07.847Z,4.55
2016-11-10T07:12:07.417Z,4.54
2016-11-10T07:13:07.799Z,4.55
2016-11-10T07:14:07.472Z,4.55
2016-11-10T07:15:08.249Z,4.57
2016-11-10T07:16:07.831Z,4.55
2016-11-10T07:17:07.536Z,4.61
2016-11-10T07:18:08.111Z,4.62
2016-11-10T07:19:07.779Z,4.62
2016-11-10T07:20:07.667Z,4.63
2016-11-10T07:21:07.460Z,4.61
2016-11-10T07:22:08.056Z,4.61
2016-11-10T07:23:07.896Z,4.64
2016-11-10T07:24:07.652Z,4.66
2016-11-10T07:25:07.419Z,4.66
2016-11-10T07:26:08.153Z,4.67
2016-11-10T07:27:07.931Z,4.60
2016-11-10T07:28:07.750Z,4.61
2016-11-10T07:29:07.420Z,4.65
2016-11-10T07:30:08.037Z,4.68
2016-11-10T07:31:07.711Z,4.70
2016-11-10T07:32:07.509Z,4.71
2016-11-10T07:33:07.931Z,4.71
2016-11-10T07:34:07.398Z,4.74
2016-11-10T07:35:08.111Z,4.77
2016-11-10T07:36:07.772Z,4.80
2016-11-10T07:37:07.571Z,4.85
2016-11-10T07:38:07.310Z,4.92
2016-11-10T07:39:07.961Z,4.97
2016-11-10T07:40:17.414Z,5.01
2016-11-10T07:41:08.123Z,5.07
2016-11-10T07:42:07.825Z,5.05
2016-11-10T07:43:07.476Z,5.07
2016-11-10T07:44:08.228Z,5.10
2016-11-10T07:45:08.115Z,5.17
2016-11-10T07:46:07.936Z,5.21
2016-11-10T07:47:07.770Z,5.23
2016-11-10T07:48:07.586Z,5.20
2016-11-10T07:49:07.351Z,5.22
2016-11-10T07:50:08.225Z,5.18
2016-11-10T07:51:08.067Z,5.20
2016-11-10T07:52:07.823Z,5.20
2016-11-10T07:53:07.535Z,5.22
2016-11-10T07:54:08.235Z,5.20
2016-11-10T07:55:07.857Z,5.24
2016-11-10T07:56:08.108Z,5.25
2016-11-10T07:57:07.785Z,5.23
2016-11-10T07:58:08.762Z,5.20
2016-11-10T07:59:07.612Z,5.20
2016-11-10T08:00:07.321Z,5.21
2016-11-10T08:01:08.210Z,5.29
2016-11-10T08:02:07.863Z,5.31
2016-11-10T08:03:07.595Z,5.31
2016-11-10T08:04:07.356Z,5.34
2016-11-10T08:05:07.972Z,5.41
2016-11-10T08:06:07.804Z,5.44
2016-11-10T08:07:07.407Z,5.46
2016-11-10T08:08:08.120Z,5.46
2016-11-10T08:09:07.827Z,5.49
2016-11-10T08:10:07.763Z,5.59
2016-11-10T08:11:07.492Z,5.65
2016-11-10T08:12:08.133Z,5.62
2016-11-10T08:13:07.890Z,5.58
2016-11-10T08:14:08.199Z,5.64
2016-11-10T08:15:07.875Z,5.63
2016-11-10T08:16:07.473Z,5.62
2016-11-10T08:17:09.059Z,5.59
2016-11-10T08:18:07.868Z,5.65
2016-11-10T08:19:07.499Z,5.58
2016-11-10T08:20:08.338Z,5.53
2016-11-10T08:21:07.926Z,5.60
2016-11-10T08:22:07.540Z,5.63
2016-11-10T08:23:08.756Z,5.67
2016-11-10T08:24:08.528Z,5.66
2016-11-10T08:25:14.756Z,5.63
2016-11-10T08:26:07.986Z,5.69
2016-11-10T08:27:08.339Z,5.70
2016-11-10T08:28:07.529Z,5.76
2016-11-10T08:29:14.189Z,5.82
2016-11-10T08:30:08.367Z,5.84
2016-11-10T08:31:07.671Z,5.83
2016-11-10T08:32:07.897Z,5.88
2016-11-10T08:33:07.769Z,5.83
2016-11-10T08:34:07.591Z,5.82
2016-11-10T08:35:07.197Z,5.81
2016-11-10T08:36:08.189Z,5.81
2016-11-10T08:37:07.926Z,5.86
2016-11-10T08:38:07.536Z,5.90
2016-11-10T08:39:07.224Z,5.83
2016-11-10T08:40:08.106Z,5.88
2016-11-10T08:41:07.832Z,5.88
2016-11-10T08:42:07.624Z,5.92
2016-11-10T08:43:07.261Z,5.91
2016-11-10T08:44:08.043Z,5.90
2016-11-10T08:45:07.849Z,5.84
2016-11-10T08:46:07.601Z,5.91
2016-11-10T08:47:07.384Z,5.92
2016-11-10T08:48:08.050Z,5.95
2016-11-10T08:49:07.828Z,5.96
2016-11-10T08:50:07.512Z,5.98
2016-11-10T08:51:08.175Z,5.88
2016-11-10T08:52:08.451Z,5.85
2016-11-10T08:53:08.300Z,5.84
2016-11-10T08:54:08.520Z,5.79
2016-11-10T08:55:07.297Z,5.87
2016-11-10T08:56:07.902Z,5.88
2016-11-10T08:57:07.571Z,5.88
2016-11-10T08:58:08.291Z,5.89
2016-11-10T08:59:08.115Z,5.91
2016-11-10T09:00:07.905Z,5.94
2016-11-10T09:01:07.596Z,5.93
2016-11-10T09:02:07.333Z,5.86
2016-11-10T09:03:08.023Z,5.91
2016-11-10T09:04:07.856Z,5.93
2016-11-10T09:05:07.593Z,5.87
2016-11-10T09:06:07.253Z,5.81
2016-11-10T09:07:07.986Z,5.82
2016-11-10T09:08:07.871Z,5.81
2016-11-10T09:09:08.046Z,5.84
2016-11-10T09:10:07.427Z,5.82
2016-11-10T09:11:08.088Z,5.76
2016-11-10T09:12:07.872Z,5.83
2016-11-10T09:13:07.373Z,5.88
2016-11-10T09:14:07.983Z,5.88
2016-11-10T09:15:08.189Z,5.83
2016-11-10T09:16:07.837Z,5.85
2016-11-10T09:17:07.623Z,5.81
2016-11-10T09:18:07.717Z,5.79
2016-11-10T09:19:07.446Z,5.85
2016-11-10T09:20:08.208Z,5.89
2016-11-10T09:21:08.077Z,5.86
2016-11-10T09:22:07.757Z,5.79
2016-11-10T09:23:07.351Z,5.75
2016-11-10T09:24:07.977Z,5.71
2016-11-10T09:25:07.574Z,5.71
2016-11-10T09:26:08.251Z,5.72
2016-11-10T09:27:07.900Z,5.68
2016-11-10T09:28:07.802Z,5.66
2016-11-10T09:29:07.693Z,5.67
2016-11-10T09:30:07.851Z,5.69
2016-11-10T09:31:08.334Z,5.68
2016-11-10T09:32:08.053Z,5.67
2016-11-10T09:33:07.913Z,5.67
2016-11-10T09:34:07.531Z,5.71
2016-11-10T09:35:08.383Z,5.71
2016-11-10T09:36:08.168Z,5.75
2016-11-10T09:37:07.368Z,5.68
2016-11-10T09:38:07.492Z,5.67
2016-11-10T09:39:08.283Z,5.64
2016-11-10T09:40:08.033Z,5.62
2016-11-10T09:41:07.851Z,5.69
2016-11-10T09:42:07.434Z,5.71
2016-11-10T09:43:09.102Z,5.71
2016-11-10T09:44:07.885Z,5.72
2016-11-10T09:45:07.525Z,5.71
2016-11-10T09:46:08.347Z,5.71
2016-11-10T09:47:08.062Z,5.75
2016-11-10T09:48:07.811Z,5.79
2016-11-10T09:49:07.463Z,5.86
2016-11-10T09:50:08.457Z,5.85
2016-11-10T09:51:08.290Z,5.83
2016-11-10T09:52:08.028Z,5.86
2016-11-10T09:53:07.917Z,5.83
2016-11-10T09:54:07.593Z,5.87
2016-11-10T09:55:07.289Z,5.90
2016-11-10T09:56:07.895Z,5.89
2016-11-10T09:57:07.632Z,5.86
2016-11-10T09:58:07.398Z,5.89
2016-11-10T09:59:08.168Z,5.90
2016-11-10T10:00:07.880Z,5.87
2016-11-10T10:01:07.625Z,5.90
2016-11-10T10:02:07.378Z,5.97
2016-11-10T10:03:08.138Z,5.98
2016-11-10T10:04:08.156Z,5.97
2016-11-10T10:05:07.853Z,6.00
2016-11-10T10:06:08.107Z,6.03
2016-11-10T10:07:07.858Z,6.08
2016-11-10T10:08:07.631Z,6.11
2016-11-10T10:09:08.148Z,6.14
2016-11-10T10:10:08.036Z,6.11
2016-11-10T10:11:07.794Z,6.10
2016-11-10T10:12:08.227Z,6.12
2016-11-10T10:13:07.914Z,6.23
2016-11-10T10:14:07.754Z,6.27
2016-11-10T10:15:07.355Z,6.30
2016-11-10T10:16:07.959Z,6.25
2016-11-10T10:17:07.764Z,6.27
2016-11-10T10:18:07.395Z,6.27
2016-11-10T10:19:08.321Z,6.33
2016-11-10T10:20:07.914Z,6.40
2016-11-10T10:21:07.641Z,6.48
2016-11-10T10:22:07.281Z,6.47
2016-11-10T10:23:07.844Z,6.33
2016-11-10T10:24:07.595Z,6.32
2016-11-10T10:25:07.357Z,6.37
2016-11-10T10:26:08.023Z,6.27
2016-11-10T10:27:07.744Z,6.28
2016-11-10T10:28:07.576Z,6.29
2016-11-10T10:29:07.333Z,6.32
2016-11-10T10:30:08.122Z,6.38
2016-11-10T10:31:07.302Z,6.45
2016-11-10T10:32:08.177Z,6.48
2016-11-10T10:33:07.907Z,6.48
2016-11-10T10:34:07.664Z,6.41
2016-11-10T10:35:07.403Z,6.47
2016-11-10T10:36:08.069Z,6.51
2016-11-10T10:37:07.804Z,6.59
2016-11-10T10:38:07.615Z,6.58
2016-11-10T10:39:07.271Z,6.56
2016-11-10T10:40:07.728Z,6.60
2016-11-10T10:41:08.056Z,6.60
2016-11-10T10:42:07.714Z,6.70
2016-11-10T10:43:07.353Z,6.73
2016-11-10T10:44:08.046Z,6.75
2016-11-10T10:45:07.893Z,6.74
2016-11-10T10:46:07.728Z,6.78
2016-11-10T10:47:07.603Z,6.85
2016-11-10T10:48:07.409Z,6.83
2016-11-10T10:49:08.180Z,6.84
2016-11-10T10:50:07.891Z,6.91
2016-11-10T10:51:07.650Z,6.93
2016-11-10T10:52:07.218Z,7.02
2016-11-10T10:53:08.025Z,7.08
2016-11-10T10:54:07.703Z,7.11
2016-11-10T10:55:07.440Z,7.13
2016-11-10T10:56:08.092Z,7.06
2016-11-10T10:57:07.757Z,7.06
2016-11-10T10:58:07.371Z,6.97
2016-11-10T10:59:08.020Z,6.97
2016-11-10T11:00:07.598Z,7.05
2016-11-10T11:01:07.438Z,7.13
2016-11-10T11:02:08.244Z,7.08
2016-11-10T11:03:08.069Z,7.20
2016-11-10T11:04:07.872Z,7.32
2016-11-10T11:05:07.606Z,7.25
2016-11-10T11:06:07.280Z,7.28
2016-11-10T11:07:07.970Z,7.24
2016-11-10T11:08:07.766Z,7.17
2016-11-10T11:09:07.428Z,7.10
2016-11-10T11:10:08.144Z,7.07
2016-11-10T11:11:07.959Z,7.07
2016-11-10T11:12:07.739Z,7.00
2016-11-10T11:13:07.349Z,6.83
2016-11-10T11:14:08.177Z,6.88
2016-11-10T11:15:07.993Z,6.80
2016-11-10T11:16:07.791Z,6.74
2016-11-10T11:17:07.586Z,6.68
2016-11-10T11:18:07.327Z,6.76
2016-11-10T11:19:08.018Z,6.76
2016-11-10T11:20:07.911Z,6.68
2016-11-10T11:21:07.616Z,6.57
2016-11-10T11:22:07.418Z,6.51
2016-11-10T11:23:08.200Z,6.49
2016-11-10T11:24:07.786Z,6.50
2016-11-10T11:25:07.449Z,6.51
2016-11-10T11:26:08.093Z,6.45
2016-11-10T11:27:07.868Z,6.50
2016-11-10T11:28:07.491Z,6.47
2016-11-10T11:29:08.167Z,6.56
2016-11-10T11:30:07.809Z,6.61
2016-11-10T11:31:07.543Z,6.72
2016-11-10T11:32:07.354Z,6.80
2016-11-10T11:33:08.041Z,6.73
2016-11-10T11:34:07.727Z,6.69
2016-11-10T11:35:07.350Z,6.73
2016-11-10T11:36:08.022Z,6.79
2016-11-10T11:37:07.759Z,6.77
2016-11-10T11:38:07.333Z,6.77
2016-11-10T11:39:08.003Z,6.77
2016-11-10T11:40:07.639Z,6.81
2016-11-10T11:41:07.301Z,6.86
2016-11-10T11:42:08.077Z,6.96
2016-11-10T11:43:07.767Z,6.92
2016-11-10T11:44:07.363Z,6.91
2016-11-10T11:45:08.021Z,6.92
2016-11-10T11:46:07.777Z,6.86
2016-11-10T11:47:07.485Z,6.89
2016-11-10T11:48:08.060Z,6.90
2016-11-10T11:49:07.911Z,6.85
2016-11-10T11:50:07.656Z,6.92
2016-11-10T11:51:07.267Z,6.94
2016-11-10T11:52:07.953Z,6.96
2016-11-10T11:53:08.046Z,6.94
2016-11-10T11:54:07.833Z,6.90
2016-11-10T11:55:07.535Z,6.91
2016-11-10T11:56:07.269Z,6.92
2016-11-10T11:57:07.998Z,6.98
2016-11-10T11:58:07.738Z,7.02
2016-11-10T11:59:07.543Z,7.01
2016-11-10T12:00:08.275Z,7.02
2016-11-10T12:01:08.077Z,7.07
2016-11-10T12:02:07.719Z,6.98
2016-11-10T12:03:07.399Z,7.03
2016-11-10T12:04:08.043Z,7.03
2016-11-10T12:05:07.676Z,7.06
2016-11-10T12:06:07.369Z,7.15
2016-11-10T12:07:08.144Z,7.09
2016-11-10T12:08:07.763Z,7.08
2016-11-10T12:09:07.438Z,7.09
2016-11-10T12:10:08.307Z,7.22
2016-11-10T12:11:08.108Z,7.35
2016-11-10T12:12:07.853Z,7.40
2016-11-10T12:13:07.554Z,7.49
2016-11-10T12:14:08.256Z,7.48
2016-11-10T12:15:07.701Z,7.56
2016-11-10T12:16:07.501Z,7.58
2016-11-10T12:17:08.385Z,7.57
2016-11-10T12:18:08.041Z,7.56
2016-11-10T12:19:07.750Z,7.55
2016-11-10T12:20:07.490Z,7.59
2016-11-10T12:21:08.482Z,7.65
2016-11-10T12:22:07.248Z,7.70
2016-11-10T12:23:07.975Z,7.76
2016-11-10T12:24:07.707Z,7.71
2016-11-10T12:25:08.100Z,7.65
2016-11-10T12:26:07.725Z,7.75
2016-11-10T12:27:07.464Z,7.72
2016-11-10T12:28:08.076Z,7.72
2016-11-10T12:29:07.842Z,7.69
2016-11-10T12:30:07.528Z,7.61
2016-11-10T12:31:08.211Z,7.48
2016-11-10T12:32:07.878Z,7.41
2016-11-10T12:33:07.497Z,7.34
2016-11-10T12:34:08.231Z,7.29
2016-11-10T12:35:07.907Z,7.30
2016-11-10T12:36:07.593Z,7.29
2016-11-10T12:37:07.267Z,7.26
2016-11-10T12:38:07.966Z,7.24
2016-11-10T12:39:07.631Z,7.20
2016-11-10T12:40:07.244Z,7.19
2016-11-10T12:41:08.009Z,7.25
2016-11-10T12:42:07.762Z,7.26
2016-11-10T12:43:07.507Z,7.35
2016-11-10T12:44:08.265Z,7.37
2016-11-10T12:45:07.963Z,7.37
2016-11-10T12:46:07.571Z,7.40
2016-11-10T12:47:07.267Z,7.48
2016-11-10T12:48:08.026Z,7.49
2016-11-10T12:49:07.704Z,7.48
2016-11-10T12:50:07.504Z,7.44
2016-11-10T12:51:08.304Z,7.44
2016-11-10T12:52:08.183Z,7.48
2016-11-10T12:53:07.877Z,7.48
2016-11-10T12:54:07.583Z,7.53
2016-11-10T12:55:07.436Z,7.54
2016-11-10T12:56:08.187Z,7.55
2016-11-10T12:57:07.959Z,7.56
2016-11-10T12:58:07.862Z,7.50
2016-11-10T12:59:08.468Z,7.44
2016-11-10T13:00:08.103Z,7.47
2016-11-10T13:01:07.477Z,7.49
2016-11-10T13:02:07.670Z,7.54
2016-11-10T13:03:07.411Z,7.58
2016-11-10T13:04:07.563Z,7.63
2016-11-10T13:05:08.024Z,7.71
2016-11-10T13:06:07.266Z,7.83
2016-11-10T13:07:07.854Z,7.89
2016-11-10T13:08:07.575Z,7.93
2016-11-10T13:09:07.295Z,7.94
2016-11-10T13:10:08.091Z,7.87
2016-11-10T13:11:07.739Z,7.80
2016-11-10T13:12:07.628Z,7.82
2016-11-10T13:13:07.355Z,7.79
2016-11-10T13:14:08.211Z,7.84
2016-11-10T13:15:08.024Z,7.78
2016-11-10T13:16:07.692Z,7.65
2016-11-10T13:17:07.641Z,7.76
2016-11-10T13:18:07.293Z,7.74